createdAt,value
2018-12-12T00:01:47.776Z,3.40
2018-12-12T00:04:18.059Z,3.87
2018-12-12T00:06:47.887Z,4.37
2018-12-12T00:09:18.051Z,4.90
2018-12-12T00:11:47.660Z,3.50
2018-12-12T00:14:17.796Z,3.50
2018-12-12T00:16:47.414Z,4.10
2018-12-12T00:19:17.517Z,3.70
2018-12-12T00:21:47.174Z,4.30
2018-12-12T00:24:17.559Z,3.83
2018-12-12T00:26:47.128Z,4.00
2018-12-12T00:29:16.910Z,4.10
2018-12-12T00:31:46.577Z,4.07
2018-12-12T00:34:16.290Z,3.90
2018-12-12T00:36:45.930Z,3.87
2018-12-12T00:39:15.596Z,4.03
2018-12-12T00:41:45.195Z,3.80
2018-12-12T00:44:14.786Z,4.60
2018-12-12T00:46:44.928Z,3.73
2018-12-12T00:49:15.011Z,3.83
2018-12-12T00:51:44.810Z,3.80
2018-12-12T00:54:14.466Z,4.20
2018-12-12T00:56:44.006Z,4.57
2018-12-12T00:59:13.564Z,5.17
2018-12-12T01:01:43.207Z,5.23
2018-12-12T01:04:12.784Z,5.70
2018-12-12T01:06:43.446Z,6.40
2018-12-12T01:09:13.087Z,5.80
2018-12-12T01:11:48.332Z,6.00
2018-12-12T01:14:18.013Z,5.70
2018-12-12T01:16:47.627Z,4.97
2018-12-12T01:19:17.185Z,4.93
2018-12-12T01:21:46.889Z,5.20
2018-12-12T01:24:16.503Z,5.07
2018-12-12T01:26:46.103Z,5.40
2018-12-12T01:29:15.667Z,4.53
2018-12-12T01:31:45.216Z,5.03
2018-12-12T01:34:14.778Z,4.87
2018-12-12T01:36:44.517Z,5.73
2018-12-12T01:39:14.079Z,5.77
2018-12-12T01:41:43.675Z,7.80
2018-12-12T01:44:13.271Z,8.43
2018-12-12T01:46:42.853Z,6.40
2018-12-12T01:49:12.473Z,6.13
2018-12-12T01:51:42.761Z,5.60
2018-12-12T01:54:12.413Z,5.83
2018-12-12T01:56:41.978Z,6.37
2018-12-12T01:59:11.581Z,7.83
2018-12-12T02:01:41.144Z,8.13
2018-12-12T02:04:10.707Z,6.47
2018-12-12T02:06:41.421Z,6.43
2018-12-12T02:09:11.123Z,6.13
2018-12-12T02:11:41.288Z,6.60
2018-12-12T02:14:10.873Z,6.07
2018-12-12T02:16:40.528Z,6.40
2018-12-12T02:19:10.213Z,5.57
2018-12-12T02:21:40.704Z,5.60
2018-12-12T02:24:10.271Z,5.47
2018-12-12T02:26:39.984Z,5.90
2018-12-12T02:29:09.572Z,5.50
2018-12-12T02:31:39.175Z,5.60
2018-12-12T02:34:08.753Z,5.63
2018-12-12T02:36:38.841Z,5.73
2018-12-12T02:39:09.495Z,5.97
2018-12-12T02:41:39.097Z,5.73
2018-12-12T02:44:08.685Z,6.10
2018-12-12T02:46:38.373Z,6.07
2018-12-12T02:49:07.999Z,6.00
2018-12-12T02:51:38.706Z,6.60
2018-12-12T02:54:08.365Z,6.40
2018-12-12T02:56:38.029Z,6.33
2018-12-12T02:59:07.768Z,5.90
2018-12-12T03:01:37.358Z,6.03
2018-12-12T03:04:06.973Z,5.93
2018-12-12T03:06:36.978Z,6.00
2018-12-12T03:09:08.169Z,6.13
2018-12-12T03:11:38.344Z,6.57
2018-12-12T03:14:07.946Z,6.60
2018-12-12T03:16:37.651Z,7.63
2018-12-12T03:19:07.239Z,7.83
2018-12-12T03:21:37.328Z,8.27
2018-12-12T03:24:07.033Z,8.17
2018-12-12T03:26:36.830Z,8.13
2018-12-12T03:29:06.444Z,8.67
2018-12-12T03:31:36.028Z,9.60
2018-12-12T03:34:05.602Z,9.10
2018-12-12T03:36:35.555Z,9.40
2018-12-12T03:39:08.037Z,9.93
2018-12-12T03:41:37.908Z,10.80
2018-12-12T03:44:07.493Z,10.30
2018-12-12T03:46:37.097Z,10.73
2018-12-12T03:49:06.781Z,10.97
2018-12-12T03:51:37.624Z,11.23
2018-12-12T03:54:07.300Z,11.83
2018-12-12T03:56:36.918Z,11.33
2018-12-12T03:59:06.526Z,10.70
2018-12-12T04:01:36.130Z,11.37
2018-12-12T04:04:05.675Z,11.50
2018-12-12T04:06:35.715Z,10.43
2018-12-12T04:09:08.115Z,10.97
2018-12-12T04:11:38.236Z,10.17
2018-12-12T04:14:07.966Z,10.50
2018-12-12T04:16:37.620Z,10.77
2018-12-12T04:19:07.339Z,10.67
2018-12-12T04:21:37.017Z,11.17
2018-12-12T04:24:06.657Z,10.90
2018-12-12T04:26:36.256Z,10.20
2018-12-12T04:29:05.865Z,11.27
2018-12-12T04:31:35.436Z,10.93
2018-12-12T04:34:05.257Z,11.17
2018-12-12T04:36:34.998Z,10.70
2018-12-12T04:39:07.319Z,10.87
2018-12-12T04:41:36.943Z,10.87
2018-12-12T04:44:06.666Z,10.87
2018-12-12T04:46:36.256Z,10.67
2018-12-12T04:49:05.853Z,11.47
2018-12-12T04:51:35.835Z,11.10
2018-12-12T04:54:05.458Z,11.97
2018-12-12T04:56:35.078Z,10.80
2018-12-12T04:59:05.186Z,11.47
2018-12-12T05:01:35.725Z,12.83
2018-12-12T05:04:05.332Z,12.37
2018-12-12T05:06:35.762Z,10.80
2018-12-12T05:09:07.858Z,12.17
2018-12-12T05:11:37.449Z,11.50
2018-12-12T05:14:06.993Z,11.67
2018-12-12T05:16:36.609Z,12.60
2018-12-12T05:19:06.841Z,12.23
2018-12-12T05:21:41.396Z,12.23
2018-12-12T05:24:11.079Z,12.47
2018-12-12T05:26:45.028Z,13.50
2018-12-12T05:29:14.767Z,13.67
2018-12-12T05:31:44.391Z,13.73
2018-12-12T05:34:13.975Z,16.42
2018-12-12T05:36:44.217Z,14.57
2018-12-12T05:39:13.897Z,13.50
2018-12-12T05:41:43.514Z,13.90
2018-12-12T05:44:13.080Z,13.70
2018-12-12T05:46:43.732Z,13.90
2018-12-12T05:49:16.176Z,14.30
2018-12-12T05:51:45.794Z,14.07
2018-12-12T05:54:15.433Z,13.60
2018-12-12T05:56:45.018Z,13.27
2018-12-12T05:59:14.640Z,12.17
2018-12-12T06:01:44.327Z,12.30
2018-12-12T06:04:13.942Z,12.67
2018-12-12T06:06:44.511Z,12.33
2018-12-12T06:09:14.222Z,12.83
2018-12-12T06:11:44.094Z,12.27
2018-12-12T06:14:13.759Z,13.73
2018-12-12T06:16:43.392Z,12.83
2018-12-12T06:19:12.976Z,12.47
2018-12-12T06:21:43.484Z,13.07
2018-12-12T06:24:13.106Z,14.43
2018-12-12T06:26:42.692Z,15.43
2018-12-12T06:29:12.295Z,17.00
2018-12-12T06:31:42.034Z,16.60
2018-12-12T06:34:11.702Z,17.10
2018-12-12T06:36:43.152Z,17.20
2018-12-12T06:39:12.791Z,16.77
2018-12-12T06:41:42.522Z,17.83
2018-12-12T06:44:12.125Z,17.60
2018-12-12T06:46:41.824Z,17.20
2018-12-12T06:49:11.404Z,17.13
2018-12-12T06:51:42.480Z,17.97
2018-12-12T06:54:12.058Z,17.23
2018-12-12T06:56:41.731Z,17.57
2018-12-12T06:59:11.466Z,18.57
2018-12-12T07:01:41.211Z,19.27
2018-12-12T07:04:10.829Z,18.80
2018-12-12T07:06:41.697Z,22.37
2018-12-12T07:09:11.424Z,22.33
2018-12-12T07:11:41.922Z,22.37
2018-12-12T07:14:11.556Z,20.57
2018-12-12T07:16:41.291Z,21.40
2018-12-12T07:19:10.869Z,22.10
2018-12-12T07:21:42.267Z,23.20
2018-12-12T07:24:11.931Z,21.27
2018-12-12T07:26:41.642Z,21.03
2018-12-12T07:29:11.289Z,22.33
2018-12-12T07:31:40.890Z,22.10
2018-12-12T07:34:10.471Z,20.47
2018-12-12T07:36:41.824Z,21.80
2018-12-12T07:39:17.715Z,22.87
2018-12-12T07:41:43.283Z,22.57
2018-12-12T07:44:12.981Z,21.50
2018-12-12T07:46:43.035Z,22.67
2018-12-12T07:49:13.204Z,23.17
2018-12-12T07:51:43.516Z,21.93
2018-12-12T07:54:13.191Z,22.50
2018-12-12T07:56:42.810Z,22.13
2018-12-12T07:59:12.379Z,22.03
2018-12-12T08:01:42.028Z,23.00
2018-12-12T08:04:11.630Z,21.80
2018-12-12T08:06:42.117Z,21.70
2018-12-12T08:09:11.800Z,22.70
2018-12-12T08:11:42.065Z,23.10
2018-12-12T08:14:11.853Z,23.37
2018-12-12T08:16:41.944Z,24.63
2018-12-12T08:19:11.529Z,24.20
2018-12-12T08:21:42.453Z,24.23
2018-12-12T08:24:12.097Z,22.97
2018-12-12T08:26:41.807Z,23.40
2018-12-12T08:29:11.474Z,21.97
2018-12-12T08:31:41.142Z,22.83
2018-12-12T08:34:10.856Z,23.20
2018-12-12T08:36:42.110Z,23.67
2018-12-12T08:39:11.755Z,23.57
2018-12-12T08:41:41.399Z,23.67
2018-12-12T08:44:10.983Z,23.37
2018-12-12T08:46:40.647Z,23.63
2018-12-12T08:49:10.274Z,22.30
2018-12-12T08:51:41.163Z,24.30
2018-12-12T08:54:10.785Z,26.53
2018-12-12T08:56:40.549Z,25.27
2018-12-12T08:59:10.203Z,29.00
2018-12-12T09:01:40.010Z,25.27
2018-12-12T09:04:09.706Z,24.40
2018-12-12T09:06:41.414Z,26.63
2018-12-12T09:09:11.093Z,28.70
2018-12-12T09:11:41.735Z,27.93
2018-12-12T09:14:11.348Z,27.30
2018-12-12T09:16:41.039Z,27.30
2018-12-12T09:19:10.697Z,28.40
2018-12-12T09:21:41.672Z,25.77
2018-12-12T09:24:11.436Z,29.73
2018-12-12T09:26:41.172Z,25.20
2018-12-12T09:29:11.015Z,25.53
2018-12-12T09:31:40.847Z,25.47
2018-12-12T09:34:10.465Z,27.23
2018-12-12T09:36:41.767Z,26.13
2018-12-12T09:39:11.351Z,22.97
2018-12-12T09:41:41.005Z,23.50
2018-12-12T09:44:10.882Z,25.07
2018-12-12T09:46:40.524Z,22.87
2018-12-12T09:49:10.160Z,21.87
2018-12-12T09:51:42.327Z,22.93
2018-12-12T09:54:12.068Z,21.63
2018-12-12T09:56:41.742Z,22.47
2018-12-12T09:59:11.330Z,21.77
2018-12-12T10:01:40.923Z,20.50
2018-12-12T10:04:10.605Z,19.40
2018-12-12T10:06:41.148Z,21.03
2018-12-12T10:09:10.787Z,21.10
2018-12-12T10:11:41.008Z,23.87
2018-12-12T10:14:11.074Z,21.87
2018-12-12T10:16:41.158Z,22.30
2018-12-12T10:19:11.458Z,23.60
2018-12-12T10:21:44.988Z,19.33
2018-12-12T10:24:16.524Z,20.37
2018-12-12T10:26:48.235Z,18.67
2018-12-12T10:29:17.867Z,18.60
2018-12-12T10:31:49.510Z,19.27
2018-12-12T10:34:19.182Z,19.43
2018-12-12T10:36:48.857Z,17.87
2018-12-12T10:39:18.446Z,18.37
2018-12-12T10:41:48.056Z,19.33
2018-12-12T10:44:17.989Z,19.47
2018-12-12T10:46:47.569Z,18.93
2018-12-12T10:49:17.212Z,17.87
2018-12-12T10:51:47.049Z,18.50
2018-12-12T10:54:16.619Z,20.77
2018-12-12T10:56:46.351Z,19.27
2018-12-12T10:59:15.977Z,20.57
2018-12-12T11:01:47.870Z,20.17
2018-12-12T11:04:19.841Z,21.20
2018-12-12T11:06:49.493Z,20.37
2018-12-12T11:09:19.165Z,20.40
2018-12-12T11:11:48.807Z,18.80
2018-12-12T11:14:18.414Z,20.30
2018-12-12T11:16:49.781Z,20.80
2018-12-12T11:19:25.191Z,19.83
2018-12-12T11:21:55.028Z,21.37
2018-12-12T11:24:25.143Z,20.20
2018-12-12T11:26:54.878Z,20.17
2018-12-12T11:29:24.538Z,20.07
2018-12-12T11:31:54.449Z,20.30
2018-12-12T11:34:24.327Z,20.53
2018-12-12T11:36:54.631Z,20.57
2018-12-12T11:39:24.488Z,20.53
2018-12-12T11:41:54.154Z,20.60
2018-12-12T11:44:23.797Z,21.27
2018-12-12T11:46:53.462Z,22.13
2018-12-12T11:49:23.218Z,20.73
2018-12-12T11:51:53.134Z,20.03
2018-12-12T11:54:22.925Z,20.40
2018-12-12T11:56:52.669Z,21.03
2018-12-12T11:59:22.561Z,21.63
2018-12-12T12:01:52.324Z,19.27
2018-12-12T12:04:21.999Z,19.33
2018-12-12T12:06:51.659Z,19.30
2018-12-12T12:09:21.302Z,20.50
2018-12-12T12:11:51.214Z,19.93
2018-12-12T12:14:20.894Z,19.57
2018-12-12T12:16:50.596Z,16.70
2018-12-12T12:19:22.793Z,17.60
2018-12-12T12:21:52.732Z,17.23
2018-12-12T12:24:22.422Z,16.43
2018-12-12T12:26:52.556Z,16.77
2018-12-12T12:29:22.907Z,16.77
2018-12-12T12:31:52.547Z,17.57
2018-12-12T12:34:24.471Z,18.23
2018-12-12T12:36:54.332Z,17.10
2018-12-12T12:39:24.104Z,17.30
2018-12-12T12:41:53.851Z,17.53
2018-12-12T12:44:24.316Z,17.17
2018-12-12T12:46:54.176Z,16.90
2018-12-12T12:49:23.900Z,19.07
2018-12-12T12:54:33.424Z,18.27
2018-12-12T12:57:03.139Z,17.43
2018-12-12T12:59:32.841Z,16.97
2018-12-12T13:02:03.056Z,17.93
2018-12-12T13:04:33.465Z,18.67
2018-12-12T13:07:03.764Z,17.37
2018-12-12T13:09:33.867Z,16.23
2018-12-12T13:12:03.655Z,16.73
2018-12-12T13:14:33.784Z,18.53
2018-12-12T13:17:03.561Z,18.77
2018-12-12T13:19:34.097Z,16.17
2018-12-12T13:22:04.190Z,18.20
2018-12-12T13:24:36.215Z,18.20
2018-12-12T13:27:06.477Z,19.30
2018-12-12T13:29:36.318Z,20.43
2018-12-12T13:32:06.543Z,19.00
2018-12-12T13:34:36.372Z,18.13
2018-12-12T13:37:06.715Z,18.90
2018-12-12T13:39:37.054Z,20.10
2018-12-12T13:42:07.159Z,19.37
2018-12-12T13:44:36.810Z,19.53
2018-12-12T13:47:07.449Z,19.97
2018-12-12T13:49:37.169Z,19.97
2018-12-12T13:52:07.387Z,20.50
2018-12-12T13:57:23.791Z,18.17
2018-12-12T13:59:53.498Z,17.67
2018-12-12T14:02:23.657Z,18.17
2018-12-12T14:04:53.309Z,18.37
2018-12-12T14:07:23.181Z,19.70
2018-12-12T14:09:52.902Z,19.40
2018-12-12T14:12:22.625Z,20.03
2018-12-12T14:14:52.293Z,20.50
2018-12-12T14:17:22.018Z,21.13
2018-12-12T14:19:53.751Z,18.63
2018-12-12T14:22:27.315Z,19.37
2018-12-12T14:24:59.817Z,19.53
2018-12-12T14:27:30.664Z,20.57
2018-12-12T14:30:00.495Z,19.43
2018-12-12T14:32:30.085Z,20.13
2018-12-12T14:35:05.373Z,20.30
2018-12-12T14:37:35.087Z,20.87
2018-12-12T14:40:05.194Z,21.53
2018-12-12T14:42:35.781Z,22.53
2018-12-12T14:45:06.035Z,22.40
2018-12-12T14:47:35.820Z,22.40
2018-12-12T14:50:10.280Z,25.03
2018-12-12T14:52:39.933Z,25.03
2018-12-12T14:55:09.546Z,24.77
2018-12-12T14:57:39.786Z,25.07
2018-12-12T15:00:09.622Z,24.53
2018-12-12T15:02:39.351Z,25.60
2018-12-12T15:05:09.048Z,25.97
2018-12-12T15:07:38.761Z,27.53
2018-12-12T15:10:08.710Z,26.13
2018-12-12T15:12:39.187Z,28.17
2018-12-12T15:15:08.953Z,29.27
2018-12-12T15:17:38.685Z,30.43
2018-12-12T15:20:08.524Z,27.67
2018-12-12T15:22:38.152Z,27.50
2018-12-12T15:25:07.799Z,26.50
2018-12-12T15:27:37.664Z,27.07
2018-12-12T15:30:07.814Z,25.63
2018-12-12T15:32:37.536Z,24.13
2018-12-12T15:35:07.408Z,24.23
2018-12-12T15:37:36.988Z,25.63
2018-12-12T15:40:07.339Z,24.60
2018-12-12T15:42:37.566Z,22.57
2018-12-12T15:45:08.128Z,25.97
2018-12-12T15:47:37.956Z,25.10
2018-12-12T15:50:07.569Z,26.23
2018-12-12T15:52:37.208Z,25.20
2018-12-12T15:55:07.023Z,25.87
2018-12-12T15:57:36.968Z,25.53
2018-12-12T16:00:08.508Z,27.07
2018-12-12T16:02:38.310Z,28.13
2018-12-12T16:05:08.037Z,28.77
2018-12-12T16:07:37.715Z,28.50
2018-12-12T16:10:07.855Z,27.83
2018-12-12T16:12:37.607Z,25.27
2018-12-12T16:15:07.475Z,24.07
2018-12-12T16:17:37.095Z,24.97
2018-12-12T16:20:07.964Z,23.53
2018-12-12T16:22:38.312Z,23.63
2018-12-12T16:25:08.536Z,25.40
2018-12-12T16:27:38.733Z,27.53
2018-12-12T16:30:09.223Z,27.40
2018-12-12T16:32:38.896Z,32.27
2018-12-12T16:35:08.530Z,32.43
2018-12-12T16:37:38.200Z,31.90
2018-12-12T16:40:08.118Z,28.73
2018-12-12T16:42:38.531Z,28.30
2018-12-12T16:45:08.646Z,27.13
2018-12-12T16:47:38.305Z,27.17
2018-12-12T16:50:08.771Z,27.63
2018-12-12T16:52:38.385Z,28.43
2018-12-12T16:55:08.269Z,28.20
2018-12-12T16:57:38.963Z,27.43
2018-12-12T17:00:10.207Z,28.80
2018-12-12T17:02:39.974Z,29.53
2018-12-12T17:05:11.133Z,30.30
2018-12-12T17:07:40.822Z,32.37
2018-12-12T17:10:10.959Z,35.87
2018-12-12T17:12:41.602Z,30.83
2018-12-12T17:15:11.573Z,32.13
2018-12-12T17:17:41.362Z,31.07
2018-12-12T17:20:10.986Z,30.07
2018-12-12T17:22:41.031Z,27.87
2018-12-12T17:25:11.804Z,28.60
2018-12-12T17:27:44.381Z,26.10
2018-12-12T17:30:21.472Z,26.83
2018-12-12T17:33:03.448Z,24.37
2018-12-12T17:35:33.558Z,25.70
2018-12-12T17:38:03.686Z,24.33
2018-12-12T17:40:34.549Z,27.03
2018-12-12T17:43:04.521Z,25.20
2018-12-12T17:45:35.469Z,23.17
2018-12-12T17:48:05.096Z,22.53
2018-12-12T17:50:36.982Z,26.10
2018-12-12T17:53:06.762Z,27.03
2018-12-12T17:55:36.455Z,24.47
2018-12-12T17:58:07.126Z,24.17
2018-12-12T18:00:37.949Z,23.40
2018-12-12T18:03:08.273Z,23.60
2018-12-12T18:05:40.102Z,23.20
2018-12-12T18:08:12.104Z,25.00
2018-12-12T18:10:52.835Z,24.57
2018-12-12T18:13:24.985Z,24.23
2018-12-12T18:15:57.288Z,24.27
2018-12-12T18:18:28.090Z,25.47
2018-12-12T18:21:01.639Z,23.83
2018-12-12T18:23:33.734Z,24.70
2018-12-12T18:26:06.746Z,24.17
2018-12-12T18:28:37.967Z,25.07
2018-12-12T18:31:10.625Z,24.90
2018-12-12T18:33:44.435Z,24.30
2018-12-12T18:36:16.741Z,24.40
2018-12-12T18:38:48.929Z,23.33
2018-12-12T18:41:21.135Z,25.00
2018-12-12T18:43:52.285Z,24.20
2018-12-12T18:46:25.407Z,24.50
2018-12-12T18:48:57.022Z,28.70
2018-12-12T18:51:28.176Z,27.80
2018-12-12T18:54:01.337Z,26.73
2018-12-12T18:56:34.172Z,28.53
2018-12-12T18:59:07.605Z,28.50
2018-12-12T19:01:42.036Z,29.17
2018-12-12T19:04:13.370Z,29.50
2018-12-12T19:06:44.771Z,26.87
2018-12-12T19:09:17.324Z,27.90
2018-12-12T19:11:52.060Z,26.03
2018-12-12T19:14:25.091Z,26.63
2018-12-12T19:16:57.374Z,26.37
2018-12-12T19:19:30.244Z,26.10
2018-12-12T19:22:01.569Z,22.87
2018-12-12T19:24:33.523Z,25.63
2018-12-12T19:27:04.674Z,24.27
2018-12-12T19:29:37.911Z,25.27
2018-12-12T19:32:09.543Z,23.60
2018-12-12T19:34:41.887Z,25.93
2018-12-12T19:37:14.841Z,28.13
2018-12-12T19:39:47.837Z,28.67
2018-12-12T19:42:20.793Z,27.53
2018-12-12T19:44:54.092Z,28.93
2018-12-12T19:47:27.234Z,29.33
2018-12-12T19:50:02.007Z,31.47
2018-12-12T19:52:37.061Z,29.30
2018-12-12T19:55:09.973Z,28.27
2018-12-12T19:57:43.410Z,27.13
2018-12-12T20:00:14.253Z,27.77
2018-12-12T20:02:48.728Z,27.17
2018-12-12T20:08:20.207Z,24.40
2018-12-12T20:10:56.268Z,26.40
